Rapports des METAR proches

 

LFAQ - Bray, France
Distance from station: SSO 19km
Mise à jour: 27/10/2021 01:00
Très nuageux
Très nuageux
 Vent SSO
Vent: SSO 17 km/h
Température: 12°C
Point de rosée: 11°C
Humidité: 94%
Baromètre: 1024 hPa
Clouds: Très nuageux
Visibility: 10 km
Cloud details: Très nuageux 1158 m
2021/10/26 23:00 LFAQ 262300Z AUTO 20009KT 9999 BKN038 12/11 Q1024
LFQQ - Lille/Lesquin, France
Distance from station: NNE 53km
Mise à jour: 27/10/2021 01:00
Couvert
Couvert
 Vent SSO
Vent: SSO 20 km/h
Température: 13°C
Point de rosée: 12°C
Humidité: 94%
Baromètre: 1023 hPa
Clouds: Couvert
Visibility: 10 km
Cloud details: Couvert 1128 m
2021/10/26 23:00 LFQQ 262300Z AUTO 20011KT 9999 OVC037 13/12 Q1023 TEMPO 2000 RADZ OVC004
EBCV - Chievres Ab, Belgium
Distance from station: NE 88km
Mise à jour: 27/10/2021 00:55
Couvert
Couvert
 Vent SSO
Vent: SSO 15 km/h
Température: 12°C
Point de rosée: 11°C
Humidité: 94%
Baromètre: 1023 hPa
Clouds: Couvert
Visibility: 10 km
Cloud details: Couvert 1097 m
2021/10/26 22:55 EBCV 262255Z AUTO 20008KT 9999 OVC036/// 12/11 Q1023 BLU
 
LFOB - Beauvais/Tille(A, France
Distance from station: SSO 88km
Mise à jour: 27/10/2021 01:00
Clair
Clair
 Vent SSO
Vent: SSO 13 km/h
Température: 11°C
Point de rosée: 10°C
Humidité: 94%
Baromètre: 1024 hPa
Résumé: Clair
Visibility: greater than 10 km
2021/10/26 23:00 LFOB 262300Z AUTO 21007KT CAVOK 11/10 Q1024 BECMG 3000 BR OVC003
LFAT - Le Touquet/P. Pl, France
Distance from station: ONO 93km
Mise à jour: 27/10/2021 00:30
Très nuageux
Très nuageux
 Vent SSO
Vent: SSO 15 km/h
Température: 15°C
Point de rosée: 13°C
Humidité: 88%
Baromètre: 1022 hPa
Clouds: Très nuageux
Visibility: 10 km
Cloud details: Quelques nuages 579 m
Très nuageux 1189 m
2021/10/26 22:30 LFAT 262230Z AUTO 21008KT 160V250 9999 FEW019/// BKN039/// 15/13 Q1022
EBFN - Koksijde (bel-Af, Belgium
Distance from station: N 105km
Mise à jour: 27/10/2021 00:55
Couvert
Couvert
 Vent SSO
Vent: SSO 13 km/h
Température: 14°C
Point de rosée: 13°C
Humidité: 94%
Baromètre: 1021 hPa
Clouds: Couvert
Visibility: 10 km
Cloud details: Couvert 1036 m
2021/10/26 22:55 EBFN 262255Z AUTO 21007KT 9999 OVC034/// 14/13 Q1021 BLU
 
EBOS - Oostende Airport, Belgium
Distance from station: N 119km
Mise à jour: 27/10/2021 01:20
Très nuageux
Très nuageux
 Vent SSO
Vent: SSO 19 km/h
Température: 13°C
Point de rosée: 12°C
Humidité: 94%
Baromètre: 1022 hPa
Clouds: Très nuageux
Visibility: 10 km
Cloud details: Très nuageux 914 m
2021/10/26 23:20 EBOS 262320Z 21010KT 9999 BKN030 13/12 Q1022 NOSIG
EBCI - Charleroi/Gossel, Belgium
Distance from station: ENE 124km
Mise à jour: 27/10/2021 01:20
Quelques nuages
Quelques nuages
 Vent SSO
Vent: SSO 17 km/h
Température: 11°C
Point de rosée: 10°C
Humidité: 94%
Baromètre: 1024 hPa
Clouds: Quelques nuages
Visibility: 10 km
Cloud details: Quelques nuages 1097 m
2021/10/26 23:20 EBCI 262320Z 21009KT 9999 FEW036 11/10 Q1024 NOSIG
LFPG - Charles De Gaull, France
Distance from station: S 125km
Mise à jour: 27/10/2021 01:00
Clair
Clair
 Vent S
Vent: S 9 km/h
Température: 11°C
Point de rosée: 10°C
Humidité: 94%
Baromètre: 1025 hPa
Résumé: Clair
Visibility: greater than 10 km
2021/10/26 23:00 LFPG 262300Z 19005KT CAVOK 11/10 Q1025 NOSIG
 
LFPT - Cormeilles Vexin, France
Distance from station: SSO 127km
Mise à jour: 27/10/2021 01:00
Clair
Clair
 Vent OSO
Vent: OSO 9 km/h
Température: 11°C
Point de rosée: 10°C
Humidité: 94%
Baromètre: 1025 hPa
Résumé: Clair
Visibility: greater than 10 km
2021/10/26 23:00 LFPT 262300Z AUTO 24005KT 210V270 CAVOK 11/10 Q1025
LFPB - Paris/Le Bourget, France
Distance from station: S 132km
Mise à jour: 27/10/2021 01:00
Clair
Clair
 Vent S
Vent: S 11 km/h
Température: 12°C
Point de rosée: 10°C
Humidité: 88%
Baromètre: 1025 hPa
Résumé: Clair
Visibility: greater than 10 km
2021/10/26 23:00 LFPB 262300Z AUTO 19006KT CAVOK 12/10 Q1025 TEMPO 4000 BR
EBFS - Florennes (bel-A, Belgium
Distance from station: E 133km
Mise à jour: 27/10/2021 01:17
Couvert
Couvert
 Vent SO
Vent: SO 13 km/h
Température: 11°C
Point de rosée: 10°C
Humidité: 94%
Baromètre: 1024 hPa
Clouds: Couvert
Visibility: 9 km
Cloud details: Quelques nuages 122 m
Partiellement nuageux 274 m
Couvert 1097 m
2021/10/26 23:17 EBFS 262317Z AUTO 22007KT 9000 FEW004/// SCT009/// OVC036/// 11/10 Q1024 GRN
 
LFQA - Reims/Prunay, France
Distance from station: SE 143km
Mise à jour: 27/10/2021 01:00
Couvert
Couvert
 Vent varies
Vent: varies 4 km/h
Température: 9°C
Point de rosée: 9°C
Humidité: 100%
Baromètre: 1025 hPa
Clouds: Couvert
Visibility: 10 km
Cloud details: Couvert 1341 m
2021/10/26 23:00 LFQA 262300Z AUTO VRB02KT 9999 OVC044 09/09 Q1025
LFOP - Rouen/Boos (aut), France
Distance from station: SO 144km
Mise à jour: 27/10/2021 01:00
Quelques nuages
Quelques nuages
 Vent SSO
Vent: SSO 19 km/h
Température: 11°C
Point de rosée: 10°C
Humidité: 94%
Baromètre: 1024 hPa
Clouds: Quelques nuages
Visibility: 10 km
Cloud details: Quelques nuages 1189 m
2021/10/26 23:00 LFOP 262300Z AUTO 21010KT 9999 FEW039 11/10 Q1024
EBBR - Brussels Nationa, Belgium
Distance from station: NE 148km
Mise à jour: 27/10/2021 01:20
Très nuageux
Très nuageux
 Vent SO
Vent: SO 17 km/h
Température: 13°C
Point de rosée: 11°C
Humidité: 88%
Baromètre: 1023 hPa
Clouds: Très nuageux
Visibility: 10 km
Cloud details: Très nuageux 1036 m
2021/10/26 23:20 EBBR 262320Z 22009KT 9999 BKN034 13/11 Q1023 NOSIG
 
EBBE - Beauvechain (baf, Belgium
Distance from station: ENE 156km
Mise à jour: 27/10/2021 00:55
Quelques nuages
Quelques nuages
 Vent SSO
Vent: SSO 17 km/h
Température: 12°C
Point de rosée: 11°C
Humidité: 94%
Baromètre: 1023 hPa
Clouds: Quelques nuages
Visibility: 10 km
Cloud details: Quelques nuages 1128 m
2021/10/26 22:55 EBBE 262255Z AUTO 21009KT 9999 FEW037/// 12/11 Q1023 BLU
EHFS - Vlissingen, Netherlands
Distance from station: NNE 157km
Mise à jour: 27/10/2021 00:55
Couvert
Couvert
 Vent SSO
Vent: SSO 28 km/h
Température: 14°C
Point de rosée: 13°C
Humidité: 94%
Baromètre: 1021 hPa
Clouds: Couvert
Visibility: 10 km
Cloud details: Couvert 457 m
2021/10/26 22:55 EHFS 262255Z AUTO 20015KT 9999 OVC015/// 14/13 Q1021
LFPV - Villacoublay/Vel, France
Distance from station: SSO 157km
Mise à jour: 27/10/2021 01:00
Clair
Clair
 Vent SO
Vent: SO 7 km/h
Température: 10°C
Température au vent: 9°C
Point de rosée: 9°C
Humidité: 94%
Baromètre: 1025 hPa
Résumé: Clair
Visibility: greater than 10 km
2021/10/26 23:00 LFPV 262300Z AUTO 23004KT 200V260 CAVOK 10/09 Q1025 NOSIG
 
EGMD - Lydd Airport, United Kingdom
Distance from station: NO 160km
Mise à jour: 27/10/2021 01:20
Couvert
Couvert
 Vent SO
Vent: SO 33 km/h
Température: 16°C
Point de rosée: 14°C
Humidité: 88%
Baromètre: 1021 hPa
Clouds: Couvert
Visibility: 10 km
Cloud details: Très nuageux 610 m
Très nuageux 762 m
Couvert 945 m
2021/10/26 23:20 EGMD 262320Z AUTO 23018KT 9999 BKN020/// BKN025/// OVC031/// 16/14 Q1021